createdAt,value
2019-05-02T00:01:16.728Z,8.78
2019-05-02T00:03:45.185Z,8.84
2019-05-02T00:06:14.105Z,8.83
2019-05-02T00:08:42.849Z,8.78
2019-05-02T00:11:11.294Z,8.74
2019-05-02T00:13:39.746Z,8.75
2019-05-02T00:16:09.046Z,8.80
2019-05-02T00:18:39.045Z,8.87
2019-05-02T00:21:07.822Z,8.86
2019-05-02T00:23:36.483Z,8.84
2019-05-02T00:26:04.963Z,8.79
2019-05-02T00:28:33.397Z,8.72
2019-05-02T00:31:01.896Z,8.79
2019-05-02T00:33:34.508Z,8.82
2019-05-02T00:36:00.872Z,8.79
2019-05-02T00:38:33.351Z,8.74
2019-05-02T00:41:02.233Z,8.70
2019-05-02T00:43:34.576Z,8.72
2019-05-02T00:46:00.973Z,8.74
2019-05-02T00:48:59.847Z,8.73
2019-05-02T00:51:26.748Z,8.68
2019-05-02T00:53:54.914Z,8.68
2019-05-02T00:56:23.616Z,8.65
2019-05-02T00:58:52.087Z,8.68
2019-05-02T01:01:39.568Z,8.69
2019-05-02T01:04:27.641Z,8.62
2019-05-02T01:06:57.569Z,8.58
2019-05-02T01:09:26.448Z,8.57
2019-05-02T01:11:54.967Z,8.60
2019-05-02T01:14:27.078Z,8.54
2019-05-02T01:16:54.464Z,8.55
2019-05-02T01:19:23.920Z,8.49
2019-05-02T01:21:52.613Z,8.41
2019-05-02T01:24:21.072Z,8.40
2019-05-02T01:27:04.523Z,8.44
2019-05-02T01:29:39.595Z,8.41
2019-05-02T01:32:30.446Z,8.36
2019-05-02T01:35:04.546Z,8.38
2019-05-02T01:37:58.145Z,8.43
2019-05-02T01:40:26.603Z,8.43
2019-05-02T01:42:55.963Z,8.47
2019-05-02T01:45:24.431Z,8.52
2019-05-02T01:47:52.931Z,8.56
2019-05-02T01:50:21.581Z,8.59
2019-05-02T01:52:53.753Z,8.63
2019-05-02T01:55:21.136Z,8.67
2019-05-02T01:57:50.908Z,8.67
2019-05-02T02:00:19.431Z,8.69
2019-05-02T02:02:48.067Z,8.68
2019-05-02T02:05:16.573Z,8.69
2019-05-02T02:07:45.147Z,8.74
2019-05-02T02:10:15.056Z,8.78
2019-05-02T02:13:02.801Z,8.77
2019-05-02T02:15:14.265Z,8.70
2019-05-02T02:17:46.870Z,8.76
2019-05-02T02:20:15.660Z,8.80
2019-05-02T02:22:57.981Z,8.81
2019-05-02T02:25:36.157Z,8.81
2019-05-02T02:28:04.496Z,8.88
2019-05-02T02:30:33.100Z,8.91
2019-05-02T02:33:07.758Z,8.88
2019-05-02T02:35:32.037Z,8.87
2019-05-02T02:38:00.957Z,8.90
2019-05-02T02:40:33.556Z,8.90
2019-05-02T02:43:12.822Z,8.89
2019-05-02T02:45:43.909Z,8.93
2019-05-02T02:48:12.833Z,8.90
2019-05-02T02:50:42.938Z,8.89
2019-05-02T02:53:18.096Z,8.89
2019-05-02T02:55:42.449Z,8.89
2019-05-02T02:58:10.907Z,8.92
2019-05-02T03:00:41.541Z,8.88
2019-05-02T03:03:09.909Z,8.93
2019-05-02T03:05:38.366Z,8.95
2019-05-02T03:08:07.279Z,8.98
2019-05-02T03:10:39.969Z,8.97
2019-05-02T03:13:24.230Z,8.98
2019-05-02T03:16:00.444Z,8.99
2019-05-02T03:18:27.130Z,8.99
2019-05-02T03:20:55.380Z,9.00
2019-05-02T03:23:24.300Z,8.98
2019-05-02T03:25:52.786Z,9.00
2019-05-02T03:28:21.287Z,9.02
2019-05-02T03:30:50.036Z,9.06
2019-05-02T03:33:18.570Z,9.05
2019-05-02T03:35:49.153Z,9.02
2019-05-02T03:38:17.208Z,9.01
2019-05-02T03:40:45.842Z,9.05
2019-05-02T03:43:19.067Z,9.05
2019-05-02T03:45:44.553Z,9.06
2019-05-02T03:48:18.403Z,9.11
2019-05-02T03:50:43.191Z,9.15
2019-05-02T03:53:17.696Z,9.13
2019-05-02T03:55:42.042Z,9.12
2019-05-02T03:58:14.191Z,9.16
2019-05-02T04:00:40.755Z,9.16
2019-05-02T04:03:09.229Z,9.18
2019-05-02T04:05:40.558Z,9.19
2019-05-02T04:08:19.661Z,9.22
2019-05-02T04:11:12.888Z,9.18
2019-05-02T04:13:41.627Z,9.22
2019-05-02T04:16:15.244Z,9.21
2019-05-02T04:18:40.516Z,9.26
2019-05-02T04:21:09.056Z,9.29
2019-05-02T04:23:37.659Z,9.34
2019-05-02T04:26:12.095Z,9.30
2019-05-02T04:28:36.568Z,9.31
2019-05-02T04:31:05.073Z,9.32
2019-05-02T04:33:34.685Z,9.32
2019-05-02T04:36:14.213Z,9.35
2019-05-02T04:38:44.440Z,9.35
2019-05-02T04:41:05.560Z,9.38
2019-05-02T04:43:40.599Z,9.37
2019-05-02T04:46:09.393Z,9.38
2019-05-02T04:48:40.017Z,9.41
2019-05-02T04:51:10.312Z,9.41
2019-05-02T04:53:40.923Z,9.40
2019-05-02T04:56:10.241Z,9.43
2019-05-02T04:58:39.717Z,9.42
2019-05-02T05:01:05.964Z,9.43
2019-05-02T05:03:34.435Z,9.48
2019-05-02T05:06:08.017Z,9.48
2019-05-02T05:08:33.103Z,9.43
2019-05-02T05:11:01.602Z,9.38
2019-05-02T05:13:30.049Z,9.36
2019-05-02T05:16:02.876Z,9.39
2019-05-02T05:18:29.192Z,9.39
2019-05-02T05:20:57.937Z,9.39
2019-05-02T05:23:51.737Z,9.40
2019-05-02T05:26:20.702Z,9.43
2019-05-02T05:28:49.157Z,9.44
2019-05-02T05:31:24.106Z,9.45
2019-05-02T05:33:47.985Z,9.45
2019-05-02T05:36:19.749Z,9.45
2019-05-02T05:38:47.875Z,9.46
2019-05-02T05:41:20.157Z,9.50
2019-05-02T05:43:50.083Z,9.52
2019-05-02T05:46:17.900Z,9.51
2019-05-02T05:48:47.683Z,9.53
2019-05-02T05:51:20.406Z,9.56
2019-05-02T05:53:47.877Z,9.58
2019-05-02T05:56:18.022Z,9.61
2019-05-02T05:58:51.335Z,9.59
2019-05-02T06:01:20.315Z,9.58
2019-05-02T06:03:47.512Z,9.58
2019-05-02T06:06:22.361Z,9.60
2019-05-02T06:08:49.191Z,9.58
2019-05-02T06:11:20.109Z,9.59
2019-05-02T06:13:48.694Z,9.59
2019-05-02T06:16:17.252Z,9.61
2019-05-02T06:18:45.899Z,9.59
2019-05-02T06:21:17.009Z,9.61
2019-05-02T06:23:44.530Z,9.64
2019-05-02T06:26:14.051Z,9.67
2019-05-02T06:28:43.412Z,9.67
2019-05-02T06:31:12.095Z,9.66
2019-05-02T06:33:40.586Z,9.64
2019-05-02T06:36:09.091Z,9.68
2019-05-02T06:38:37.711Z,9.71
2019-05-02T06:41:06.198Z,9.72
2019-05-02T06:43:34.679Z,9.71
2019-05-02T06:46:15.561Z,9.74
2019-05-02T06:48:33.469Z,9.77
2019-05-02T06:51:01.974Z,9.78
2019-05-02T06:53:30.453Z,9.82
2019-05-02T06:55:58.919Z,9.84
2019-05-02T06:58:27.436Z,9.85
2019-05-02T07:00:58.786Z,9.88
2019-05-02T07:03:27.687Z,9.87
2019-05-02T07:05:58.706Z,9.85
2019-05-02T07:08:26.851Z,9.79
2019-05-02T07:10:55.904Z,9.75
2019-05-02T07:13:25.490Z,9.80
2019-05-02T07:16:10.605Z,9.81
2019-05-02T07:18:47.512Z,9.81
2019-05-02T07:21:17.764Z,9.83
2019-05-02T07:23:42.965Z,9.84
2019-05-02T07:26:15.346Z,9.86
2019-05-02T07:28:45.728Z,9.81
2019-05-02T07:31:13.804Z,9.81
2019-05-02T07:33:41.976Z,9.82
2019-05-02T07:36:10.640Z,9.81
2019-05-02T07:38:39.135Z,9.81
2019-05-02T07:41:07.595Z,9.82
2019-05-02T07:43:36.068Z,9.80
2019-05-02T07:46:04.820Z,9.77
2019-05-02T07:48:33.326Z,9.81
2019-05-02T07:51:01.783Z,9.83
2019-05-02T07:53:30.418Z,9.86
2019-05-02T07:55:58.867Z,9.86
2019-05-02T07:58:27.328Z,9.81
2019-05-02T08:00:55.877Z,9.83
2019-05-02T08:03:24.346Z,9.79
2019-05-02T08:05:54.379Z,9.77
2019-05-02T08:08:25.110Z,9.76
2019-05-02T08:10:59.689Z,9.70
2019-05-02T08:13:23.422Z,9.71
2019-05-02T08:15:52.438Z,9.66
2019-05-02T08:18:25.111Z,9.65
2019-05-02T08:20:55.858Z,9.66
2019-05-02T08:23:25.998Z,9.67
2019-05-02T08:25:51.687Z,9.58
2019-05-02T08:28:24.982Z,9.58
2019-05-02T08:30:55.611Z,9.55
2019-05-02T08:33:29.297Z,9.49
2019-05-02T08:35:54.551Z,9.44
2019-05-02T08:38:23.045Z,9.44
2019-05-02T08:40:51.751Z,9.47
2019-05-02T08:43:20.416Z,9.49
2019-05-02T08:45:48.965Z,9.51
2019-05-02T08:48:17.407Z,9.49
2019-05-02T08:50:45.904Z,9.44
2019-05-02T08:53:19.660Z,9.40
2019-05-02T08:55:45.308Z,9.37
2019-05-02T08:58:15.826Z,9.33
2019-05-02T09:00:47.159Z,9.37
2019-05-02T09:03:15.008Z,9.39
2019-05-02T09:05:46.008Z,9.39
2019-05-02T09:08:14.782Z,9.38
2019-05-02T09:10:44.063Z,9.39
2019-05-02T09:13:18.027Z,9.44
2019-05-02T09:15:49.628Z,9.42
2019-05-02T09:18:12.931Z,9.44
2019-05-02T09:20:42.378Z,9.46
2019-05-02T09:23:12.407Z,9.44
2019-05-02T09:25:42.846Z,9.47
2019-05-02T09:28:12.511Z,9.48
2019-05-02T09:30:41.853Z,9.49
2019-05-02T09:33:11.794Z,9.49
2019-05-02T09:35:42.170Z,9.49
2019-05-02T09:38:12.641Z,9.46
2019-05-02T09:40:42.657Z,9.45
2019-05-02T09:43:12.240Z,9.46
2019-05-02T09:45:43.229Z,9.49
2019-05-02T09:48:12.574Z,9.48
2019-05-02T09:50:42.118Z,9.49
2019-05-02T09:53:13.134Z,9.53
2019-05-02T09:55:49.122Z,9.52
2019-05-02T09:58:19.650Z,9.54
2019-05-02T10:00:47.274Z,9.49
2019-05-02T10:03:16.730Z,9.51
2019-05-02T10:05:45.274Z,9.53
2019-05-02T10:08:14.108Z,9.59
2019-05-02T10:10:45.863Z,9.64
2019-05-02T10:13:13.663Z,9.64
2019-05-02T10:15:42.264Z,9.65
2019-05-02T10:18:14.094Z,9.65
2019-05-02T10:20:41.946Z,9.68
2019-05-02T10:23:14.112Z,9.74
2019-05-02T10:25:46.478Z,9.76
2019-05-02T10:28:12.927Z,9.80
2019-05-02T10:30:42.683Z,9.81
2019-05-02T10:33:12.143Z,9.82
2019-05-02T10:35:43.376Z,9.81
2019-05-02T10:38:17.720Z,9.79
2019-05-02T10:40:42.587Z,9.84
2019-05-02T10:43:11.780Z,9.86
2019-05-02T10:45:42.636Z,9.93
2019-05-02T10:48:24.353Z,9.90
2019-05-02T10:50:47.127Z,9.91
2019-05-02T10:53:15.889Z,9.97
2019-05-02T10:55:44.541Z,9.56
2019-05-02T10:58:13.046Z,10.02
2019-05-02T11:00:45.097Z,10.08
2019-05-02T11:03:24.231Z,9.87
2019-05-02T11:05:57.856Z,10.09
2019-05-02T11:08:26.663Z,10.14
2019-05-02T11:10:55.125Z,10.17
2019-05-02T11:13:42.577Z,10.21
2019-05-02T11:16:21.677Z,10.25
2019-05-02T11:19:02.653Z,10.27
2019-05-02T11:21:32.208Z,10.31
2019-05-02T11:24:02.458Z,10.33
2019-05-02T11:26:32.410Z,10.35
2019-05-02T11:29:02.976Z,10.35
2019-05-02T11:31:32.441Z,10.39
2019-05-02T11:34:01.820Z,10.46
2019-05-02T11:36:32.602Z,10.57
2019-05-02T11:39:10.232Z,10.65
2019-05-02T11:41:31.768Z,10.74
2019-05-02T11:44:02.790Z,10.32
2019-05-02T11:46:32.863Z,10.92
2019-05-02T11:49:02.439Z,10.94
2019-05-02T11:51:32.690Z,10.97
2019-05-02T11:54:07.651Z,11.00
2019-05-02T11:56:32.993Z,10.99
2019-05-02T11:59:02.771Z,10.95
2019-05-02T12:01:37.037Z,10.91
2019-05-02T12:04:03.035Z,11.00
2019-05-02T12:06:33.169Z,11.08
2019-05-02T12:09:02.241Z,11.16
2019-05-02T12:11:32.388Z,11.19
2019-05-02T12:14:01.716Z,11.22
2019-05-02T12:16:32.314Z,11.24
2019-05-02T12:19:09.627Z,11.26
2019-05-02T12:21:32.510Z,11.27
2019-05-02T12:24:02.262Z,11.27
2019-05-02T12:26:32.408Z,11.31
2019-05-02T12:29:02.539Z,11.32
2019-05-02T12:31:32.443Z,11.36
2019-05-02T12:34:03.483Z,11.40
2019-05-02T12:36:33.294Z,11.45
2019-05-02T12:39:02.523Z,11.51
2019-05-02T12:41:33.001Z,11.53
2019-05-02T12:44:02.271Z,11.51
2019-05-02T12:46:31.746Z,11.50
2019-05-02T12:49:00.302Z,11.51
2019-05-02T12:51:28.765Z,11.50
2019-05-02T12:53:58.292Z,11.15
2019-05-02T12:56:26.834Z,11.56
2019-05-02T12:58:55.300Z,11.64
2019-05-02T13:01:23.974Z,11.73
2019-05-02T13:04:02.727Z,11.80
2019-05-02T13:06:32.757Z,11.83
2019-05-02T13:09:03.193Z,11.81
2019-05-02T13:11:42.227Z,11.82
2019-05-02T13:14:16.971Z,11.82
2019-05-02T13:16:37.439Z,11.84
2019-05-02T13:19:06.382Z,11.84
2019-05-02T13:21:59.297Z,11.85
2019-05-02T13:24:52.325Z,11.86
2019-05-02T13:27:18.959Z,11.86
2019-05-02T13:29:48.524Z,11.87
2019-05-02T13:32:23.470Z,11.89
2019-05-02T13:34:57.355Z,11.89
2019-05-02T13:37:25.882Z,11.88
2019-05-02T13:40:05.842Z,11.87
2019-05-02T13:42:38.654Z,11.87
2019-05-02T13:45:17.956Z,11.88
2019-05-02T13:47:46.398Z,11.91
2019-05-02T13:50:14.924Z,11.96
2019-05-02T13:52:45.248Z,12.02
2019-05-02T13:55:15.534Z,12.09
2019-05-02T13:57:46.831Z,12.16
2019-05-02T14:00:16.370Z,12.25
2019-05-02T14:02:44.840Z,12.36
2019-05-02T14:05:13.554Z,12.36
2019-05-02T14:07:48.374Z,12.33
2019-05-02T14:10:39.542Z,12.36
2019-05-02T14:13:04.129Z,12.39
2019-05-02T14:15:37.650Z,12.41
2019-05-02T14:18:06.382Z,12.50
2019-05-02T14:20:37.395Z,12.56
2019-05-02T14:23:05.155Z,12.61
2019-05-02T14:25:33.666Z,12.60
2019-05-02T14:28:02.920Z,12.53
2019-05-02T14:30:39.382Z,12.48
2019-05-02T14:33:05.547Z,12.46
2019-05-02T14:35:36.361Z,12.51
2019-05-02T14:38:08.993Z,12.56
2019-05-02T14:40:42.707Z,12.54
2019-05-02T14:43:13.025Z,12.51
2019-05-02T14:45:43.757Z,12.48
2019-05-02T14:48:21.005Z,12.45
2019-05-02T14:50:45.685Z,12.43
2019-05-02T14:53:16.812Z,12.46
2019-05-02T14:55:45.430Z,12.49
2019-05-02T14:58:13.903Z,12.51
2019-05-02T15:00:47.934Z,12.51
2019-05-02T15:03:14.271Z,12.49
2019-05-02T15:05:42.835Z,12.46
2019-05-02T15:08:11.859Z,12.50
2019-05-02T15:10:50.807Z,12.53
2019-05-02T15:13:12.565Z,12.60
2019-05-02T15:15:43.356Z,12.68
2019-05-02T15:18:15.812Z,12.62
2019-05-02T15:20:42.387Z,12.55
2019-05-02T15:23:14.323Z,12.55
2019-05-02T15:25:42.372Z,12.63
2019-05-02T15:28:19.130Z,12.88
2019-05-02T15:30:52.354Z,12.91
2019-05-02T15:33:22.315Z,12.84
2019-05-02T15:36:01.928Z,12.73
2019-05-02T15:38:28.301Z,12.68
2019-05-02T15:40:59.372Z,12.78
2019-05-02T15:43:27.022Z,13.10
2019-05-02T15:45:55.499Z,13.24
2019-05-02T15:48:27.564Z,13.20
2019-05-02T15:50:55.262Z,13.02
2019-05-02T15:53:29.616Z,12.86
2019-05-02T15:55:58.140Z,12.69
2019-05-02T15:58:27.999Z,12.49
2019-05-02T16:01:25.072Z,12.22
2019-05-02T16:03:54.498Z,11.89
2019-05-02T16:06:30.306Z,11.27
2019-05-02T16:08:53.264Z,11.07
2019-05-02T16:11:22.974Z,10.81
2019-05-02T16:13:55.657Z,10.67
2019-05-02T16:16:22.735Z,10.66
2019-05-02T16:18:52.616Z,10.56
2019-05-02T16:21:30.088Z,10.50
2019-05-02T16:24:15.892Z,10.39
2019-05-02T16:26:46.785Z,10.28
2019-05-02T16:29:19.713Z,10.23
2019-05-02T16:31:49.010Z,10.14
2019-05-02T16:34:17.502Z,10.02
2019-05-02T16:36:46.218Z,10.00
2019-05-02T16:39:15.413Z,10.03
2019-05-02T16:41:49.028Z,9.90
2019-05-02T16:44:14.446Z,9.79
2019-05-02T16:46:43.845Z,9.71
2019-05-02T16:49:15.664Z,9.68
2019-05-02T16:51:43.181Z,9.61
2019-05-02T16:54:12.768Z,9.43
2019-05-02T16:56:42.323Z,9.28
2019-05-02T16:59:12.641Z,9.27
2019-05-02T17:01:42.546Z,9.26
2019-05-02T17:04:12.789Z,8.92
2019-05-02T17:06:42.643Z,9.27
2019-05-02T17:09:33.894Z,9.26
2019-05-02T17:12:02.009Z,9.27
2019-05-02T17:14:31.764Z,9.31
2019-05-02T17:17:01.548Z,9.30
2019-05-02T17:19:31.407Z,9.27
2019-05-02T17:22:00.194Z,9.27
2019-05-02T17:24:28.904Z,9.22
2019-05-02T17:26:57.460Z,9.23
2019-05-02T17:29:26.060Z,9.29
2019-05-02T17:31:58.984Z,9.26
2019-05-02T17:34:30.679Z,9.31
2019-05-02T17:36:59.232Z,9.36
2019-05-02T17:39:25.061Z,9.31
2019-05-02T17:41:53.509Z,9.37
2019-05-02T17:44:24.151Z,9.40
2019-05-02T17:46:59.860Z,9.39
2019-05-02T17:49:23.690Z,9.36
2019-05-02T17:52:18.291Z,9.38
2019-05-02T17:54:42.238Z,9.36
2019-05-02T17:57:11.842Z,9.33
2019-05-02T17:59:42.150Z,9.38
2019-05-02T18:02:12.275Z,9.41
2019-05-02T18:04:41.918Z,9.40
2019-05-02T18:07:11.651Z,9.41
2019-05-02T18:09:41.873Z,9.41
2019-05-02T18:12:14.438Z,9.47
2019-05-02T18:14:42.134Z,9.49
2019-05-02T18:17:12.611Z,9.47
2019-05-02T18:19:42.558Z,9.51
2019-05-02T18:22:23.438Z,9.52
2019-05-02T18:24:42.765Z,9.53
2019-05-02T18:27:12.852Z,9.49
2019-05-02T18:29:45.293Z,9.42
2019-05-02T18:32:12.813Z,9.45
2019-05-02T18:34:41.884Z,9.44
2019-05-02T18:37:10.677Z,9.35
2019-05-02T18:39:42.602Z,9.26
2019-05-02T18:42:09.352Z,9.28
2019-05-02T18:44:37.811Z,9.27
2019-05-02T18:47:06.538Z,9.28
2019-05-02T18:49:35.018Z,9.24
2019-05-02T18:52:03.473Z,9.20
2019-05-02T18:54:33.811Z,9.20
2019-05-02T18:57:03.122Z,9.22
2019-05-02T18:59:32.009Z,9.18
2019-05-02T19:02:02.187Z,9.20
2019-05-02T19:04:38.120Z,9.20
2019-05-02T19:07:02.821Z,9.13
2019-05-02T19:09:33.167Z,9.18
2019-05-02T19:12:05.881Z,9.22
2019-05-02T19:14:32.745Z,9.29
2019-05-02T19:17:03.574Z,9.33
2019-05-02T19:19:35.194Z,9.32
2019-05-02T19:22:02.603Z,9.34
2019-05-02T19:24:36.387Z,9.33
2019-05-02T19:27:02.690Z,9.27
2019-05-02T19:29:32.140Z,9.28
2019-05-02T19:32:00.608Z,9.26
2019-05-02T19:34:29.454Z,9.25
2019-05-02T19:37:02.956Z,9.18
2019-05-02T19:39:28.172Z,9.14
2019-05-02T19:41:56.686Z,9.17
2019-05-02T19:44:29.128Z,9.18
2019-05-02T19:46:55.320Z,9.14
2019-05-02T19:49:25.393Z,9.14
2019-05-02T19:51:56.298Z,9.11
2019-05-02T19:54:24.469Z,9.08
2019-05-02T19:56:52.933Z,9.05
2019-05-02T19:59:25.355Z,9.03
2019-05-02T20:01:52.221Z,9.02
2019-05-02T20:04:22.174Z,8.99
2019-05-02T20:06:50.778Z,8.99
2019-05-02T20:09:19.220Z,9.05
2019-05-02T20:11:47.734Z,9.04
2019-05-02T20:14:16.194Z,8.98
2019-05-02T20:16:49.145Z,8.95
2019-05-02T20:19:23.229Z,8.89
2019-05-02T20:21:57.274Z,8.92
2019-05-02T20:24:49.286Z,8.86
2019-05-02T20:27:15.076Z,8.86
2019-05-02T20:29:43.751Z,8.80
2019-05-02T20:32:12.645Z,8.70
2019-05-02T20:34:41.827Z,8.68
2019-05-02T20:37:12.606Z,8.67
2019-05-02T20:39:41.622Z,8.71
2019-05-02T20:42:12.132Z,8.69
2019-05-02T20:44:41.841Z,8.63
2019-05-02T20:47:12.116Z,8.61
2019-05-02T20:49:42.326Z,8.50
2019-05-02T20:52:11.916Z,8.49
2019-05-02T20:54:40.419Z,8.50
2019-05-02T20:57:08.883Z,8.40
2019-05-02T20:59:37.362Z,8.39
2019-05-02T21:02:05.837Z,8.34
2019-05-02T21:04:34.553Z,8.32
2019-05-02T21:07:25.384Z,8.33
2019-05-02T21:10:01.957Z,8.26
2019-05-02T21:12:30.482Z,8.20
2019-05-02T21:14:58.916Z,8.16
2019-05-02T21:17:27.374Z,8.13
2019-05-02T21:19:56.153Z,8.09
2019-05-02T21:22:25.412Z,8.06
2019-05-02T21:24:53.898Z,8.04
2019-05-02T21:27:22.461Z,8.01
2019-05-02T21:29:52.281Z,7.99
2019-05-02T21:32:22.724Z,8.01
2019-05-02T21:34:52.018Z,8.02
2019-05-02T21:37:23.685Z,7.96
2019-05-02T21:39:52.219Z,7.96
2019-05-02T21:42:22.587Z,7.87
2019-05-02T21:44:51.889Z,7.81
2019-05-02T21:47:22.567Z,7.74
2019-05-02T21:50:04.196Z,7.76
2019-05-02T21:52:43.876Z,7.73
2019-05-02T21:55:32.381Z,7.79
2019-05-02T21:58:02.636Z,7.75
2019-05-02T22:00:52.660Z,7.78
2019-05-02T22:03:21.687Z,7.72
2019-05-02T22:05:50.227Z,7.72
2019-05-02T22:08:18.797Z,7.70
2019-05-02T22:10:47.290Z,7.63
2019-05-02T22:13:15.749Z,7.65
2019-05-02T22:15:44.469Z,7.67
2019-05-02T22:18:12.943Z,7.62
2019-05-02T22:20:42.795Z,7.63
2019-05-02T22:23:11.863Z,7.52
2019-05-02T22:25:41.957Z,7.58
2019-05-02T22:28:12.481Z,7.65
2019-05-02T22:30:42.864Z,7.63
2019-05-02T22:33:11.912Z,7.60
2019-05-02T22:35:43.149Z,7.54
2019-05-02T22:38:31.697Z,7.62
2019-05-02T22:41:01.687Z,7.62
2019-05-02T22:43:30.007Z,7.54
2019-05-02T22:45:58.475Z,7.57
2019-05-02T22:48:26.943Z,7.55
2019-05-02T22:50:55.397Z,7.58
2019-05-02T22:53:23.927Z,7.50
2019-05-02T22:55:52.732Z,7.47
2019-05-02T22:58:22.233Z,7.47
2019-05-02T23:00:52.291Z,7.48
2019-05-02T23:03:21.573Z,7.50
2019-05-02T23:05:52.619Z,7.52
2019-05-02T23:08:21.965Z,7.52
2019-05-02T23:10:51.921Z,7.44
2019-05-02T23:13:22.015Z,7.37
2019-05-02T23:15:52.178Z,7.37
2019-05-02T23:18:22.688Z,7.37
2019-05-02T23:20:52.612Z,7.27
2019-05-02T23:23:21.533Z,7.21
2019-05-02T23:26:06.625Z,7.22
2019-05-02T23:28:36.662Z,7.23
2019-05-02T23:31:05.223Z,7.17
2019-05-02T23:33:51.705Z,7.20
2019-05-02T23:36:20.182Z,7.16
2019-05-02T23:38:48.665Z,7.16
2019-05-02T23:41:17.318Z,7.27
2019-05-02T23:43:45.797Z,7.26
2019-05-02T23:46:14.272Z,7.18
2019-05-02T23:48:42.737Z,7.19
2019-05-02T23:51:12.133Z,7.18
2019-05-02T23:53:42.221Z,7.17
2019-05-02T23:56:13.033Z,7.20
2019-05-02T23:58:42.632Z,7.23
